sensor_id;sensor_type;location;lat;lon;timestamp;P1;durP1;ratioP1;P2;durP2;ratioP2
71207;SDS011;58938;49.868;8.646;2023-09-19T00:01:05;4.78;;;1.70;;
71207;SDS011;58938;49.868;8.646;2023-09-19T00:03:34;6.25;;;1.80;;
71207;SDS011;58938;49.868;8.646;2023-09-19T00:06:02;5.82;;;1.98;;
71207;SDS011;58938;49.868;8.646;2023-09-19T00:08:38;4.27;;;1.67;;
71207;SDS011;58938;49.868;8.646;2023-09-19T00:11:04;4.90;;;2.28;;
71207;SDS011;58938;49.868;8.646;2023-09-19T00:13:31;4.70;;;1.83;;
71207;SDS011;58938;49.868;8.646;2023-09-19T00:15:58;3.92;;;1.80;;
71207;SDS011;58938;49.868;8.646;2023-09-19T00:18:25;3.97;;;1.60;;
71207;SDS011;58938;49.868;8.646;2023-09-19T00:20:58;5.47;;;1.83;;
71207;SDS011;58938;49.868;8.646;2023-09-19T00:23:32;5.22;;;1.73;;
71207;SDS011;58938;49.868;8.646;2023-09-19T00:25:58;5.05;;;2.28;;
71207;SDS011;58938;49.868;8.646;2023-09-19T00:28:25;6.57;;;1.92;;
71207;SDS011;58938;49.868;8.646;2023-09-19T00:30:51;6.75;;;1.67;;
71207;SDS011;58938;49.868;8.646;2023-09-19T00:33:20;6.67;;;2.13;;
71207;SDS011;58938;49.868;8.646;2023-09-19T00:35:49;4.45;;;1.80;;
71207;SDS011;58938;49.868;8.646;2023-09-19T00:38:15;4.28;;;2.05;;
71207;SDS011;58938;49.868;8.646;2023-09-19T00:40:45;4.53;;;1.70;;
71207;SDS011;58938;49.868;8.646;2023-09-19T00:43:11;5.88;;;2.30;;
71207;SDS011;58938;49.868;8.646;2023-09-19T00:45:37;4.63;;;1.67;;
71207;SDS011;58938;49.868;8.646;2023-09-19T00:48:04;6.95;;;1.85;;
71207;SDS011;58938;49.868;8.646;2023-09-19T00:50:34;4.32;;;1.70;;
71207;SDS011;58938;49.868;8.646;2023-09-19T00:53:00;5.53;;;2.03;;
71207;SDS011;58938;49.868;8.646;2023-09-19T00:55:26;5.22;;;1.80;;
71207;SDS011;58938;49.868;8.646;2023-09-19T00:57:55;4.40;;;1.60;;
71207;SDS011;58938;49.868;8.646;2023-09-19T01:00:21;7.15;;;2.08;;
71207;SDS011;58938;49.868;8.646;2023-09-19T01:02:49;5.88;;;2.00;;
71207;SDS011;58938;49.868;8.646;2023-09-19T01:05:15;5.13;;;1.90;;
71207;SDS011;58938;49.868;8.646;2023-09-19T01:07:42;6.32;;;2.10;;
71207;SDS011;58938;49.868;8.646;2023-09-19T01:10:10;5.07;;;2.13;;
71207;SDS011;58938;49.868;8.646;2023-09-19T01:17:57;5.68;;;2.28;;
71207;SDS011;58938;49.868;8.646;2023-09-19T01:20:37;6.03;;;2.40;;
71207;SDS011;58938;49.868;8.646;2023-09-19T01:23:56;6.23;;;2.53;;
71207;SDS011;58938;49.868;8.646;2023-09-19T01:26:06;4.78;;;2.05;;
71207;SDS011;58938;49.868;8.646;2023-09-19T01:28:43;4.18;;;1.83;;
71207;SDS011;58938;49.868;8.646;2023-09-19T01:31:12;7.32;;;2.15;;
71207;SDS011;58938;49.868;8.646;2023-09-19T01:33:54;5.57;;;2.00;;
71207;SDS011;58938;49.868;8.646;2023-09-19T01:36:29;7.50;;;2.40;;
71207;SDS011;58938;49.868;8.646;2023-09-19T01:38:56;5.70;;;1.90;;
71207;SDS011;58938;49.868;8.646;2023-09-19T01:44:11;4.63;;;2.10;;
71207;SDS011;58938;49.868;8.646;2023-09-19T01:46:39;5.53;;;1.98;;
71207;SDS011;58938;49.868;8.646;2023-09-19T01:54:25;5.18;;;2.40;;
71207;SDS011;58938;49.868;8.646;2023-09-19T01:56:59;4.85;;;2.03;;
71207;SDS011;58938;49.868;8.646;2023-09-19T01:59:28;5.43;;;2.20;;
71207;SDS011;58938;49.868;8.646;2023-09-19T02:01:58;5.23;;;2.17;;
71207;SDS011;58938;49.868;8.646;2023-09-19T02:04:25;5.95;;;2.58;;
71207;SDS011;58938;49.868;8.646;2023-09-19T02:06:52;6.70;;;2.40;;
71207;SDS011;58938;49.868;8.646;2023-09-19T02:09:18;5.82;;;2.10;;
71207;SDS011;58938;49.868;8.646;2023-09-19T02:11:44;5.03;;;2.22;;
71207;SDS011;58938;49.868;8.646;2023-09-19T02:14:11;4.97;;;2.20;;
71207;SDS011;58938;49.868;8.646;2023-09-19T02:16:37;6.18;;;2.33;;
71207;SDS011;58938;49.868;8.646;2023-09-19T02:19:03;5.78;;;2.38;;
71207;SDS011;58938;49.868;8.646;2023-09-19T02:21:31;6.30;;;2.10;;
71207;SDS011;58938;49.868;8.646;2023-09-19T02:23:57;8.02;;;1.98;;
71207;SDS011;58938;49.868;8.646;2023-09-19T02:26:23;4.53;;;1.70;;
71207;SDS011;58938;49.868;8.646;2023-09-19T02:28:49;6.18;;;1.98;;
71207;SDS011;58938;49.868;8.646;2023-09-19T02:31:15;5.60;;;2.00;;
71207;SDS011;58938;49.868;8.646;2023-09-19T02:33:41;7.05;;;2.35;;
71207;SDS011;58938;49.868;8.646;2023-09-19T02:36:08;7.13;;;2.23;;
71207;SDS011;58938;49.868;8.646;2023-09-19T02:38:34;6.03;;;2.67;;
71207;SDS011;58938;49.868;8.646;2023-09-19T02:41:02;5.07;;;2.20;;
71207;SDS011;58938;49.868;8.646;2023-09-19T02:43:28;5.75;;;2.20;;
71207;SDS011;58938;49.868;8.646;2023-09-19T02:45:54;5.10;;;2.30;;
71207;SDS011;58938;49.868;8.646;2023-09-19T02:48:21;7.80;;;2.40;;
71207;SDS011;58938;49.868;8.646;2023-09-19T02:50:51;5.18;;;2.40;;
71207;SDS011;58938;49.868;8.646;2023-09-19T02:53:17;5.95;;;2.55;;
71207;SDS011;58938;49.868;8.646;2023-09-19T02:55:43;4.75;;;2.30;;
71207;SDS011;58938;49.868;8.646;2023-09-19T02:58:10;7.22;;;2.53;;
71207;SDS011;58938;49.868;8.646;2023-09-19T03:00:36;6.70;;;2.57;;
71207;SDS011;58938;49.868;8.646;2023-09-19T03:03:03;5.97;;;2.65;;
71207;SDS011;58938;49.868;8.646;2023-09-19T03:05:31;6.53;;;2.53;;
71207;SDS011;58938;49.868;8.646;2023-09-19T03:07:58;5.35;;;2.03;;
71207;SDS011;58938;49.868;8.646;2023-09-19T03:10:25;5.85;;;2.60;;
71207;SDS011;58938;49.868;8.646;2023-09-19T03:12:52;8.07;;;2.70;;
71207;SDS011;58938;49.868;8.646;2023-09-19T03:15:18;5.38;;;2.50;;
71207;SDS011;58938;49.868;8.646;2023-09-19T03:17:45;5.50;;;2.33;;
71207;SDS011;58938;49.868;8.646;2023-09-19T03:20:12;5.68;;;2.92;;
71207;SDS011;58938;49.868;8.646;2023-09-19T03:22:42;8.10;;;3.00;;
71207;SDS011;58938;49.868;8.646;2023-09-19T03:25:08;6.00;;;2.60;;
71207;SDS011;58938;49.868;8.646;2023-09-19T03:27:36;5.78;;;2.28;;
71207;SDS011;58938;49.868;8.646;2023-09-19T03:30:03;6.72;;;2.70;;
71207;SDS011;58938;49.868;8.646;2023-09-19T03:32:33;6.80;;;2.60;;
71207;SDS011;58938;49.868;8.646;2023-09-19T03:34:59;6.60;;;2.60;;
71207;SDS011;58938;49.868;8.646;2023-09-19T03:37:25;4.60;;;2.63;;
71207;SDS011;58938;49.868;8.646;2023-09-19T03:39:51;7.60;;;3.10;;
71207;SDS011;58938;49.868;8.646;2023-09-19T03:42:17;8.63;;;2.80;;
71207;SDS011;58938;49.868;8.646;2023-09-19T03:44:50;7.80;;;2.72;;
71207;SDS011;58938;49.868;8.646;2023-09-19T03:47:17;6.68;;;2.90;;
71207;SDS011;58938;49.868;8.646;2023-09-19T03:49:44;7.00;;;2.67;;
71207;SDS011;58938;49.868;8.646;2023-09-19T03:52:09;8.00;;;2.33;;
71207;SDS011;58938;49.868;8.646;2023-09-19T03:54:36;6.28;;;2.50;;
71207;SDS011;58938;49.868;8.646;2023-09-19T03:57:02;6.20;;;3.03;;
71207;SDS011;58938;49.868;8.646;2023-09-19T03:59:29;5.77;;;2.40;;
71207;SDS011;58938;49.868;8.646;2023-09-19T04:01:55;6.65;;;2.75;;
71207;SDS011;58938;49.868;8.646;2023-09-19T04:04:21;6.22;;;3.20;;
71207;SDS011;58938;49.868;8.646;2023-09-19T04:06:49;6.20;;;2.53;;
71207;SDS011;58938;49.868;8.646;2023-09-19T04:09:15;7.75;;;3.17;;
71207;SDS011;58938;49.868;8.646;2023-09-19T04:11:41;7.33;;;2.33;;
71207;SDS011;58938;49.868;8.646;2023-09-19T04:14:07;7.13;;;2.92;;
71207;SDS011;58938;49.868;8.646;2023-09-19T04:16:33;6.05;;;2.85;;
71207;SDS011;58938;49.868;8.646;2023-09-19T04:18:59;6.63;;;2.78;;
71207;SDS011;58938;49.868;8.646;2023-09-19T04:21:25;6.00;;;2.33;;
71207;SDS011;58938;49.868;8.646;2023-09-19T04:23:53;6.28;;;2.72;;
71207;SDS011;58938;49.868;8.646;2023-09-19T04:26:19;8.20;;;3.00;;
71207;SDS011;58938;49.868;8.646;2023-09-19T04:28:44;6.53;;;2.65;;
71207;SDS011;58938;49.868;8.646;2023-09-19T04:31:11;6.70;;;3.42;;
71207;SDS011;58938;49.868;8.646;2023-09-19T04:33:37;5.93;;;2.60;;
71207;SDS011;58938;49.868;8.646;2023-09-19T04:36:03;7.80;;;3.13;;
71207;SDS011;58938;49.868;8.646;2023-09-19T04:38:32;5.20;;;2.92;;
71207;SDS011;58938;49.868;8.646;2023-09-19T04:40:58;6.40;;;2.53;;
71207;SDS011;58938;49.868;8.646;2023-09-19T04:43:24;8.97;;;3.30;;
71207;SDS011;58938;49.868;8.646;2023-09-19T04:45:50;8.40;;;3.72;;
71207;SDS011;58938;49.868;8.646;2023-09-19T04:48:20;6.68;;;3.42;;
71207;SDS011;58938;49.868;8.646;2023-09-19T04:50:48;7.13;;;3.92;;
71207;SDS011;58938;49.868;8.646;2023-09-19T04:53:14;6.77;;;3.17;;
71207;SDS011;58938;49.868;8.646;2023-09-19T04:55:40;8.18;;;3.33;;
71207;SDS011;58938;49.868;8.646;2023-09-19T04:58:06;8.82;;;3.88;;
71207;SDS011;58938;49.868;8.646;2023-09-19T05:00:32;8.07;;;3.70;;
71207;SDS011;58938;49.868;8.646;2023-09-19T05:03:00;11.57;;;3.90;;
71207;SDS011;58938;49.868;8.646;2023-09-19T05:05:25;6.13;;;3.65;;
71207;SDS011;58938;49.868;8.646;2023-09-19T05:07:51;7.85;;;3.70;;
71207;SDS011;58938;49.868;8.646;2023-09-19T05:10:20;6.53;;;3.90;;
71207;SDS011;58938;49.868;8.646;2023-09-19T05:12:47;9.67;;;3.63;;
71207;SDS011;58938;49.868;8.646;2023-09-19T05:15:16;7.15;;;3.70;;
71207;SDS011;58938;49.868;8.646;2023-09-19T05:17:47;7.30;;;3.90;;
71207;SDS011;58938;49.868;8.646;2023-09-19T05:20:14;8.30;;;4.10;;
71207;SDS011;58938;49.868;8.646;2023-09-19T05:22:43;7.97;;;4.05;;
71207;SDS011;58938;49.868;8.646;2023-09-19T05:25:11;7.73;;;3.80;;
71207;SDS011;58938;49.868;8.646;2023-09-19T05:27:41;8.20;;;4.13;;
71207;SDS011;58938;49.868;8.646;2023-09-19T05:30:07;10.45;;;3.97;;
71207;SDS011;58938;49.868;8.646;2023-09-19T05:32:33;9.40;;;4.43;;
71207;SDS011;58938;49.868;8.646;2023-09-19T05:34:59;7.13;;;4.30;;
71207;SDS011;58938;49.868;8.646;2023-09-19T05:37:25;7.82;;;4.35;;
71207;SDS011;58938;49.868;8.646;2023-09-19T05:39:51;8.65;;;4.60;;
71207;SDS011;58938;49.868;8.646;2023-09-19T05:42:18;12.82;;;5.22;;
71207;SDS011;58938;49.868;8.646;2023-09-19T05:44:44;7.50;;;4.88;;
71207;SDS011;58938;49.868;8.646;2023-09-19T05:47:10;9.77;;;4.20;;
71207;SDS011;58938;49.868;8.646;2023-09-19T05:49:38;9.20;;;5.20;;
71207;SDS011;58938;49.868;8.646;2023-09-19T05:52:07;9.00;;;4.85;;
71207;SDS011;58938;49.868;8.646;2023-09-19T05:54:33;12.02;;;4.75;;
71207;SDS011;58938;49.868;8.646;2023-09-19T05:56:59;6.67;;;3.97;;
71207;SDS011;58938;49.868;8.646;2023-09-19T05:59:25;9.93;;;4.57;;
71207;SDS011;58938;49.868;8.646;2023-09-19T06:01:51;9.18;;;4.20;;
71207;SDS011;58938;49.868;8.646;2023-09-19T06:04:17;9.02;;;4.07;;
71207;SDS011;58938;49.868;8.646;2023-09-19T06:06:44;10.63;;;4.28;;
71207;SDS011;58938;49.868;8.646;2023-09-19T06:09:10;8.00;;;4.33;;
71207;SDS011;58938;49.868;8.646;2023-09-19T06:11:36;10.18;;;4.38;;
71207;SDS011;58938;49.868;8.646;2023-09-19T06:14:02;8.90;;;4.80;;
71207;SDS011;58938;49.868;8.646;2023-09-19T06:16:29;8.45;;;4.25;;
71207;SDS011;58938;49.868;8.646;2023-09-19T06:18:56;8.15;;;4.38;;
71207;SDS011;58938;49.868;8.646;2023-09-19T06:21:22;9.50;;;4.10;;
71207;SDS011;58938;49.868;8.646;2023-09-19T06:23:48;9.02;;;4.55;;
71207;SDS011;58938;49.868;8.646;2023-09-19T06:26:14;7.63;;;4.22;;
71207;SDS011;58938;49.868;8.646;2023-09-19T06:28:40;10.25;;;4.45;;
71207;SDS011;58938;49.868;8.646;2023-09-19T06:31:07;8.70;;;3.87;;
71207;SDS011;58938;49.868;8.646;2023-09-19T06:33:35;8.13;;;3.75;;
71207;SDS011;58938;49.868;8.646;2023-09-19T06:36:03;8.13;;;4.00;;
71207;SDS011;58938;49.868;8.646;2023-09-19T06:38:29;8.93;;;3.97;;
71207;SDS011;58938;49.868;8.646;2023-09-19T06:40:57;6.75;;;3.83;;
71207;SDS011;58938;49.868;8.646;2023-09-19T06:43:24;9.23;;;4.20;;
71207;SDS011;58938;49.868;8.646;2023-09-19T06:45:50;7.85;;;4.13;;
71207;SDS011;58938;49.868;8.646;2023-09-19T06:48:19;6.60;;;3.30;;
71207;SDS011;58938;49.868;8.646;2023-09-19T06:50:46;7.00;;;4.05;;
71207;SDS011;58938;49.868;8.646;2023-09-19T06:53:13;8.13;;;4.15;;
71207;SDS011;58938;49.868;8.646;2023-09-19T06:55:39;8.97;;;3.93;;
71207;SDS011;58938;49.868;8.646;2023-09-19T06:58:05;8.57;;;3.78;;
71207;SDS011;58938;49.868;8.646;2023-09-19T07:00:31;7.60;;;4.20;;
71207;SDS011;58938;49.868;8.646;2023-09-19T07:03:02;8.02;;;4.20;;
71207;SDS011;58938;49.868;8.646;2023-09-19T07:05:29;8.80;;;3.80;;
71207;SDS011;58938;49.868;8.646;2023-09-19T07:07:56;9.25;;;3.85;;
71207;SDS011;58938;49.868;8.646;2023-09-19T07:10:28;8.70;;;3.60;;
71207;SDS011;58938;49.868;8.646;2023-09-19T07:13:04;8.95;;;3.60;;
71207;SDS011;58938;49.868;8.646;2023-09-19T07:15:42;9.38;;;3.75;;
71207;SDS011;58938;49.868;8.646;2023-09-19T07:18:12;6.43;;;2.93;;
71207;SDS011;58938;49.868;8.646;2023-09-19T07:20:39;11.20;;;3.13;;
71207;SDS011;58938;49.868;8.646;2023-09-19T07:23:10;7.15;;;2.92;;
71207;SDS011;58938;49.868;8.646;2023-09-19T07:25:38;8.18;;;3.10;;
71207;SDS011;58938;49.868;8.646;2023-09-19T07:28:04;7.18;;;2.85;;
71207;SDS011;58938;49.868;8.646;2023-09-19T07:30:31;9.20;;;3.10;;
71207;SDS011;58938;49.868;8.646;2023-09-19T07:32:57;7.50;;;2.90;;
71207;SDS011;58938;49.868;8.646;2023-09-19T07:35:22;7.78;;;3.17;;
71207;SDS011;58938;49.868;8.646;2023-09-19T07:37:49;9.27;;;3.25;;
71207;SDS011;58938;49.868;8.646;2023-09-19T07:40:16;7.23;;;2.73;;
71207;SDS011;58938;49.868;8.646;2023-09-19T07:42:42;10.05;;;2.97;;
71207;SDS011;58938;49.868;8.646;2023-09-19T07:45:09;7.10;;;3.03;;
71207;SDS011;58938;49.868;8.646;2023-09-19T07:47:40;7.68;;;3.03;;
71207;SDS011;58938;49.868;8.646;2023-09-19T07:50:06;6.10;;;2.92;;
71207;SDS011;58938;49.868;8.646;2023-09-19T07:52:32;6.90;;;2.80;;
71207;SDS011;58938;49.868;8.646;2023-09-19T07:54:58;5.55;;;2.55;;
71207;SDS011;58938;49.868;8.646;2023-09-19T07:57:26;4.97;;;2.60;;
71207;SDS011;58938;49.868;8.646;2023-09-19T07:59:53;5.78;;;2.65;;
71207;SDS011;58938;49.868;8.646;2023-09-19T08:02:19;7.43;;;3.05;;
71207;SDS011;58938;49.868;8.646;2023-09-19T08:04:46;8.27;;;3.03;;
71207;SDS011;58938;49.868;8.646;2023-09-19T08:07:12;6.15;;;2.35;;
71207;SDS011;58938;49.868;8.646;2023-09-19T08:09:38;5.80;;;2.95;;
71207;SDS011;58938;49.868;8.646;2023-09-19T08:12:05;11.27;;;3.85;;
71207;SDS011;58938;49.868;8.646;2023-09-19T08:14:32;8.15;;;3.15;;
71207;SDS011;58938;49.868;8.646;2023-09-19T08:16:58;6.77;;;3.00;;
71207;SDS011;58938;49.868;8.646;2023-09-19T08:19:25;9.40;;;2.83;;
71207;SDS011;58938;49.868;8.646;2023-09-19T08:21:56;7.03;;;2.63;;
71207;SDS011;58938;49.868;8.646;2023-09-19T08:24:26;6.25;;;3.03;;
71207;SDS011;58938;49.868;8.646;2023-09-19T08:26:53;7.80;;;2.92;;
71207;SDS011;58938;49.868;8.646;2023-09-19T08:29:19;8.93;;;3.47;;
71207;SDS011;58938;49.868;8.646;2023-09-19T08:31:45;9.30;;;3.13;;
71207;SDS011;58938;49.868;8.646;2023-09-19T08:34:14;7.07;;;3.25;;
71207;SDS011;58938;49.868;8.646;2023-09-19T08:36:40;8.40;;;3.03;;
71207;SDS011;58938;49.868;8.646;2023-09-19T08:39:09;6.65;;;3.42;;
71207;SDS011;58938;49.868;8.646;2023-09-19T08:41:36;10.17;;;3.63;;
71207;SDS011;58938;49.868;8.646;2023-09-19T08:44:02;8.50;;;3.65;;
71207;SDS011;58938;49.868;8.646;2023-09-19T08:46:28;6.45;;;2.55;;
71207;SDS011;58938;49.868;8.646;2023-09-19T08:49:08;8.20;;;3.25;;
71207;SDS011;58938;49.868;8.646;2023-09-19T08:54:06;9.02;;;2.75;;
71207;SDS011;58938;49.868;8.646;2023-09-19T08:56:32;6.07;;;2.53;;
71207;SDS011;58938;49.868;8.646;2023-09-19T08:59:05;4.97;;;2.47;;
71207;SDS011;58938;49.868;8.646;2023-09-19T09:01:34;6.35;;;3.13;;
71207;SDS011;58938;49.868;8.646;2023-09-19T09:04:01;3.97;;;2.03;;
71207;SDS011;58938;49.868;8.646;2023-09-19T09:06:27;8.00;;;3.13;;
71207;SDS011;58938;49.868;8.646;2023-09-19T09:08:53;7.13;;;2.90;;
71207;SDS011;58938;49.868;8.646;2023-09-19T09:11:20;10.13;;;3.05;;
71207;SDS011;58938;49.868;8.646;2023-09-19T09:13:46;6.78;;;3.45;;
71207;SDS011;58938;49.868;8.646;2023-09-19T09:16:12;6.57;;;2.27;;
71207;SDS011;58938;49.868;8.646;2023-09-19T09:18:39;7.15;;;2.22;;
71207;SDS011;58938;49.868;8.646;2023-09-19T09:21:05;8.23;;;2.50;;
71207;SDS011;58938;49.868;8.646;2023-09-19T09:23:31;7.68;;;2.50;;
71207;SDS011;58938;49.868;8.646;2023-09-19T09:25:58;10.32;;;2.55;;
71207;SDS011;58938;49.868;8.646;2023-09-19T09:28:28;8.30;;;2.30;;
71207;SDS011;58938;49.868;8.646;2023-09-19T09:30:54;7.75;;;2.42;;
71207;SDS011;58938;49.868;8.646;2023-09-19T09:33:21;15.73;;;2.90;;
71207;SDS011;58938;49.868;8.646;2023-09-19T09:35:55;15.27;;;2.40;;
71207;SDS011;58938;49.868;8.646;2023-09-19T09:38:46;7.20;;;2.30;;
71207;SDS011;58938;49.868;8.646;2023-09-19T09:41:20;11.33;;;2.87;;
71207;SDS011;58938;49.868;8.646;2023-09-19T09:44:11;7.28;;;2.30;;
71207;SDS011;58938;49.868;8.646;2023-09-19T09:46:41;6.80;;;2.20;;
71207;SDS011;58938;49.868;8.646;2023-09-19T09:49:23;5.50;;;2.30;;
71207;SDS011;58938;49.868;8.646;2023-09-19T09:52:05;7.85;;;2.35;;
71207;SDS011;58938;49.868;8.646;2023-09-19T09:54:59;7.67;;;3.63;;
71207;SDS011;58938;49.868;8.646;2023-09-19T09:57:30;7.07;;;2.05;;
71207;SDS011;58938;49.868;8.646;2023-09-19T09:59:56;5.88;;;2.20;;
71207;SDS011;58938;49.868;8.646;2023-09-19T10:02:43;8.85;;;2.25;;
71207;SDS011;58938;49.868;8.646;2023-09-19T10:05:18;6.68;;;1.95;;
71207;SDS011;58938;49.868;8.646;2023-09-19T10:07:48;7.83;;;2.17;;
71207;SDS011;58938;49.868;8.646;2023-09-19T10:10:29;7.20;;;2.00;;
71207;SDS011;58938;49.868;8.646;2023-09-19T10:13:03;8.30;;;2.60;;
71207;SDS011;58938;49.868;8.646;2023-09-19T10:15:31;6.57;;;2.30;;
71207;SDS011;58938;49.868;8.646;2023-09-19T10:17:58;5.60;;;1.75;;
71207;SDS011;58938;49.868;8.646;2023-09-19T10:20:26;7.47;;;2.27;;
71207;SDS011;58938;49.868;8.646;2023-09-19T10:23:07;7.55;;;2.30;;
71207;SDS011;58938;49.868;8.646;2023-09-19T10:25:38;6.95;;;2.10;;
71207;SDS011;58938;49.868;8.646;2023-09-19T10:28:08;6.72;;;2.42;;
71207;SDS011;58938;49.868;8.646;2023-09-19T10:30:38;4.75;;;2.00;;
71207;SDS011;58938;49.868;8.646;2023-09-19T10:33:09;8.27;;;2.70;;
71207;SDS011;58938;49.868;8.646;2023-09-19T10:35:37;7.70;;;2.45;;
71207;SDS011;58938;49.868;8.646;2023-09-19T10:38:05;6.35;;;2.42;;
71207;SDS011;58938;49.868;8.646;2023-09-19T10:40:34;6.63;;;2.40;;
71207;SDS011;58938;49.868;8.646;2023-09-19T10:43:04;7.63;;;2.65;;
71207;SDS011;58938;49.868;8.646;2023-09-19T10:45:31;11.53;;;2.30;;
71207;SDS011;58938;49.868;8.646;2023-09-19T10:47:58;9.20;;;2.60;;
71207;SDS011;58938;49.868;8.646;2023-09-19T10:50:24;5.57;;;1.77;;
71207;SDS011;58938;49.868;8.646;2023-09-19T10:52:51;6.78;;;2.08;;
71207;SDS011;58938;49.868;8.646;2023-09-19T10:55:29;8.68;;;2.50;;
71207;SDS011;58938;49.868;8.646;2023-09-19T10:57:56;6.90;;;2.40;;
71207;SDS011;58938;49.868;8.646;2023-09-19T11:00:51;6.70;;;2.30;;
71207;SDS011;58938;49.868;8.646;2023-09-19T11:03:18;6.18;;;2.15;;
71207;SDS011;58938;49.868;8.646;2023-09-19T11:14:13;6.07;;;2.70;;
71207;SDS011;58938;49.868;8.646;2023-09-19T11:16:39;11.05;;;2.72;;
71207;SDS011;58938;49.868;8.646;2023-09-19T11:19:06;7.90;;;2.33;;
71207;SDS011;58938;49.868;8.646;2023-09-19T11:26:57;6.88;;;2.58;;
71207;SDS011;58938;49.868;8.646;2023-09-19T11:29:34;6.13;;;2.45;;
71207;SDS011;58938;49.868;8.646;2023-09-19T11:32:01;7.00;;;2.20;;
71207;SDS011;58938;49.868;8.646;2023-09-19T11:37:02;11.13;;;2.40;;
71207;SDS011;58938;49.868;8.646;2023-09-19T11:39:29;9.18;;;2.20;;
71207;SDS011;58938;49.868;8.646;2023-09-19T11:41:55;7.93;;;2.65;;
71207;SDS011;58938;49.868;8.646;2023-09-19T11:44:31;10.25;;;2.70;;
71207;SDS011;58938;49.868;8.646;2023-09-19T11:46:58;7.65;;;2.28;;
71207;SDS011;58938;49.868;8.646;2023-09-19T11:49:26;8.67;;;2.60;;
71207;SDS011;58938;49.868;8.646;2023-09-19T11:51:56;10.77;;;2.38;;
71207;SDS011;58938;49.868;8.646;2023-09-19T11:54:26;10.82;;;2.67;;
71207;SDS011;58938;49.868;8.646;2023-09-19T11:56:57;9.18;;;2.30;;
71207;SDS011;58938;49.868;8.646;2023-09-19T11:59:24;7.03;;;2.40;;
71207;SDS011;58938;49.868;8.646;2023-09-19T12:01:53;7.30;;;2.77;;
71207;SDS011;58938;49.868;8.646;2023-09-19T12:04:33;5.53;;;2.10;;
71207;SDS011;58938;49.868;8.646;2023-09-19T12:07:02;6.78;;;2.22;;
71207;SDS011;58938;49.868;8.646;2023-09-19T12:09:29;8.05;;;1.85;;
71207;SDS011;58938;49.868;8.646;2023-09-19T12:11:55;9.05;;;2.30;;
71207;SDS011;58938;49.868;8.646;2023-09-19T12:14:22;7.57;;;2.17;;
71207;SDS011;58938;49.868;8.646;2023-09-19T12:16:57;9.55;;;2.08;;
71207;SDS011;58938;49.868;8.646;2023-09-19T12:19:25;6.40;;;2.13;;
71207;SDS011;58938;49.868;8.646;2023-09-19T12:21:58;6.50;;;2.05;;
71207;SDS011;58938;49.868;8.646;2023-09-19T12:24:25;5.07;;;1.92;;
71207;SDS011;58938;49.868;8.646;2023-09-19T12:26:54;7.57;;;2.40;;
71207;SDS011;58938;49.868;8.646;2023-09-19T12:29:22;5.70;;;1.52;;
71207;SDS011;58938;49.868;8.646;2023-09-19T12:31:55;6.38;;;1.75;;
71207;SDS011;58938;49.868;8.646;2023-09-19T12:34:28;8.30;;;2.20;;
71207;SDS011;58938;49.868;8.646;2023-09-19T12:37:13;5.53;;;2.00;;
71207;SDS011;58938;49.868;8.646;2023-09-19T12:39:47;6.47;;;1.90;;
71207;SDS011;58938;49.868;8.646;2023-09-19T12:42:14;6.05;;;2.22;;
71207;SDS011;58938;49.868;8.646;2023-09-19T12:44:41;5.35;;;1.90;;
71207;SDS011;58938;49.868;8.646;2023-09-19T12:47:11;6.15;;;2.08;;
71207;SDS011;58938;49.868;8.646;2023-09-19T12:52:23;7.40;;;2.10;;
71207;SDS011;58938;49.868;8.646;2023-09-19T12:54:51;5.35;;;2.20;;
71207;SDS011;58938;49.868;8.646;2023-09-19T12:57:23;7.13;;;2.25;;
71207;SDS011;58938;49.868;8.646;2023-09-19T12:59:52;5.07;;;1.80;;
71207;SDS011;58938;49.868;8.646;2023-09-19T13:02:17;5.93;;;1.80;;
71207;SDS011;58938;49.868;8.646;2023-09-19T13:04:52;6.03;;;2.13;;
71207;SDS011;58938;49.868;8.646;2023-09-19T13:07:43;8.55;;;1.90;;
71207;SDS011;58938;49.868;8.646;2023-09-19T13:10:12;5.93;;;2.13;;
71207;SDS011;58938;49.868;8.646;2023-09-19T13:12:41;9.90;;;2.47;;
71207;SDS011;58938;49.868;8.646;2023-09-19T13:15:09;5.22;;;2.00;;
71207;SDS011;58938;49.868;8.646;2023-09-19T13:17:45;8.50;;;2.40;;
71207;SDS011;58938;49.868;8.646;2023-09-19T13:20:20;6.05;;;2.00;;
71207;SDS011;58938;49.868;8.646;2023-09-19T13:22:52;6.80;;;2.17;;
71207;SDS011;58938;49.868;8.646;2023-09-19T13:25:31;8.25;;;2.00;;
71207;SDS011;58938;49.868;8.646;2023-09-19T13:27:58;5.20;;;1.98;;
71207;SDS011;58938;49.868;8.646;2023-09-19T13:30:28;4.73;;;1.50;;
71207;SDS011;58938;49.868;8.646;2023-09-19T13:33:09;5.85;;;2.05;;
71207;SDS011;58938;49.868;8.646;2023-09-19T13:35:36;7.07;;;2.60;;
71207;SDS011;58938;49.868;8.646;2023-09-19T13:38:03;6.32;;;2.22;;
71207;SDS011;58938;49.868;8.646;2023-09-19T13:40:29;6.00;;;2.20;;
71207;SDS011;58938;49.868;8.646;2023-09-19T13:42:59;4.77;;;1.30;;
71207;SDS011;58938;49.868;8.646;2023-09-19T13:45:25;6.35;;;2.30;;
71207;SDS011;58938;49.868;8.646;2023-09-19T13:47:55;5.40;;;2.20;;
71207;SDS011;58938;49.868;8.646;2023-09-19T13:50:21;7.85;;;2.30;;
71207;SDS011;58938;49.868;8.646;2023-09-19T13:52:51;6.10;;;2.13;;
71207;SDS011;58938;49.868;8.646;2023-09-19T13:55:18;4.80;;;1.87;;
71207;SDS011;58938;49.868;8.646;2023-09-19T13:57:47;6.18;;;2.17;;
71207;SDS011;58938;49.868;8.646;2023-09-19T14:00:15;4.55;;;1.73;;
71207;SDS011;58938;49.868;8.646;2023-09-19T14:02:42;6.38;;;2.28;;
71207;SDS011;58938;49.868;8.646;2023-09-19T14:05:11;4.75;;;2.30;;
71207;SDS011;58938;49.868;8.646;2023-09-19T14:07:44;4.77;;;2.17;;
71207;SDS011;58938;49.868;8.646;2023-09-19T14:10:11;4.90;;;1.92;;
71207;SDS011;58938;49.868;8.646;2023-09-19T14:12:37;5.57;;;2.00;;
71207;SDS011;58938;49.868;8.646;2023-09-19T14:15:05;5.45;;;1.85;;
71207;SDS011;58938;49.868;8.646;2023-09-19T14:17:32;4.60;;;1.80;;
71207;SDS011;58938;49.868;8.646;2023-09-19T14:19:58;7.13;;;2.47;;
71207;SDS011;58938;49.868;8.646;2023-09-19T14:22:24;8.38;;;2.47;;
71207;SDS011;58938;49.868;8.646;2023-09-19T14:24:50;6.03;;;2.50;;
71207;SDS011;58938;49.868;8.646;2023-09-19T14:27:17;5.28;;;2.50;;
71207;SDS011;58938;49.868;8.646;2023-09-19T14:29:43;5.77;;;2.00;;
71207;SDS011;58938;49.868;8.646;2023-09-19T14:32:09;5.80;;;2.20;;
71207;SDS011;58938;49.868;8.646;2023-09-19T14:34:35;4.03;;;1.70;;
71207;SDS011;58938;49.868;8.646;2023-09-19T14:37:06;6.93;;;2.55;;
71207;SDS011;58938;49.868;8.646;2023-09-19T14:39:32;4.70;;;1.83;;
71207;SDS011;58938;49.868;8.646;2023-09-19T14:41:58;7.50;;;2.43;;
71207;SDS011;58938;49.868;8.646;2023-09-19T14:44:24;8.60;;;2.60;;
71207;SDS011;58938;49.868;8.646;2023-09-19T14:46:50;4.03;;;1.70;;
71207;SDS011;58938;49.868;8.646;2023-09-19T14:49:16;5.03;;;2.03;;
71207;SDS011;58938;49.868;8.646;2023-09-19T14:51:42;5.57;;;1.97;;
71207;SDS011;58938;49.868;8.646;2023-09-19T14:54:13;5.85;;;2.20;;
71207;SDS011;58938;49.868;8.646;2023-09-19T14:56:41;7.82;;;2.03;;
71207;SDS011;58938;49.868;8.646;2023-09-19T14:59:07;7.45;;;2.28;;
71207;SDS011;58938;49.868;8.646;2023-09-19T15:01:36;5.90;;;1.90;;
71207;SDS011;58938;49.868;8.646;2023-09-19T15:04:02;3.90;;;1.90;;
71207;SDS011;58938;49.868;8.646;2023-09-19T15:06:28;6.75;;;1.90;;
71207;SDS011;58938;49.868;8.646;2023-09-19T15:08:55;4.95;;;1.75;;
71207;SDS011;58938;49.868;8.646;2023-09-19T15:11:22;4.20;;;1.90;;
71207;SDS011;58938;49.868;8.646;2023-09-19T15:13:50;4.93;;;1.77;;
71207;SDS011;58938;49.868;8.646;2023-09-19T15:16:16;7.33;;;2.33;;
71207;SDS011;58938;49.868;8.646;2023-09-19T15:18:43;8.77;;;1.63;;
71207;SDS011;58938;49.868;8.646;2023-09-19T15:21:12;7.43;;;2.03;;
71207;SDS011;58938;49.868;8.646;2023-09-19T15:23:40;4.95;;;2.03;;
71207;SDS011;58938;49.868;8.646;2023-09-19T15:26:15;5.35;;;1.92;;
71207;SDS011;58938;49.868;8.646;2023-09-19T15:28:45;5.60;;;1.87;;
71207;SDS011;58938;49.868;8.646;2023-09-19T15:31:12;4.10;;;1.70;;